createdAt,value
2018-11-07T00:02:10.014Z,2.30
2018-11-07T00:04:38.328Z,2.40
2018-11-07T00:07:06.656Z,2.60
2018-11-07T00:09:34.940Z,2.50
2018-11-07T00:12:03.238Z,2.13
2018-11-07T00:14:31.545Z,2.30
2018-11-07T00:16:59.848Z,2.33
2018-11-07T00:19:28.166Z,2.50
2018-11-07T00:21:56.504Z,2.50
2018-11-07T00:24:24.785Z,2.90
2018-11-07T00:26:53.102Z,2.43
2018-11-07T00:29:21.403Z,2.47
2018-11-07T00:31:49.702Z,2.40
2018-11-07T00:34:17.980Z,2.20
2018-11-07T00:36:46.281Z,2.33
2018-11-07T00:39:14.580Z,2.30
2018-11-07T00:41:42.866Z,2.13
2018-11-07T00:44:11.142Z,2.20
2018-11-07T00:46:39.424Z,2.30
2018-11-07T00:49:07.700Z,2.20
2018-11-07T00:51:35.988Z,2.10
2018-11-07T00:54:04.266Z,2.17
2018-11-07T00:56:32.556Z,2.10
2018-11-07T00:59:00.847Z,2.27
2018-11-07T01:01:29.159Z,2.27
2018-11-07T01:03:57.462Z,2.27
2018-11-07T01:06:25.763Z,2.20
2018-11-07T01:08:54.069Z,1.73
2018-11-07T01:11:22.350Z,2.20
2018-11-07T01:13:51.134Z,2.30
2018-11-07T01:16:19.416Z,2.03
2018-11-07T01:18:47.694Z,2.30
2018-11-07T01:21:15.976Z,2.10
2018-11-07T01:23:44.256Z,2.20
2018-11-07T01:26:12.601Z,2.10
2018-11-07T01:28:40.891Z,2.00
2018-11-07T01:31:09.198Z,2.00
2018-11-07T01:33:37.518Z,2.03
2018-11-07T01:36:05.802Z,1.80
2018-11-07T01:38:34.084Z,2.07
2018-11-07T01:41:02.372Z,2.03
2018-11-07T01:43:30.693Z,2.07
2018-11-07T01:45:58.986Z,2.00
2018-11-07T01:48:27.280Z,1.87
2018-11-07T01:50:55.580Z,1.90
2018-11-07T01:53:23.866Z,1.97
2018-11-07T01:55:52.158Z,2.00
2018-11-07T01:58:20.446Z,2.03
2018-11-07T02:00:48.716Z,1.90
2018-11-07T02:03:16.996Z,2.10
2018-11-07T02:05:45.272Z,2.00
2018-11-07T02:08:13.553Z,1.87
2018-11-07T02:10:41.852Z,1.80
2018-11-07T02:13:10.172Z,1.90
2018-11-07T02:15:38.469Z,1.57
2018-11-07T02:18:07.040Z,1.77
2018-11-07T02:20:35.359Z,1.87
2018-11-07T02:23:03.647Z,1.60
2018-11-07T02:25:31.944Z,1.70
2018-11-07T02:28:00.236Z,1.73
2018-11-07T02:30:28.550Z,1.77
2018-11-07T02:32:56.842Z,1.80
2018-11-07T02:35:25.127Z,1.80
2018-11-07T02:37:53.435Z,1.70
2018-11-07T02:40:21.735Z,1.63
2018-11-07T02:42:50.021Z,1.57
2018-11-07T02:45:18.291Z,1.90
2018-11-07T02:47:46.566Z,1.43
2018-11-07T02:50:14.858Z,1.60
2018-11-07T02:52:43.183Z,1.80
2018-11-07T02:55:11.489Z,1.57
2018-11-07T02:57:39.775Z,1.60
2018-11-07T03:00:10.098Z,1.50
2018-11-07T03:02:38.481Z,1.40
2018-11-07T03:05:06.764Z,1.50
2018-11-07T03:07:35.059Z,1.70
2018-11-07T03:10:03.436Z,1.70
2018-11-07T03:12:31.712Z,1.40
2018-11-07T03:15:00.005Z,1.50
2018-11-07T03:17:28.293Z,1.60
2018-11-07T03:19:56.596Z,1.40
2018-11-07T03:22:24.882Z,1.60
2018-11-07T03:24:53.159Z,1.60
2018-11-07T03:27:21.459Z,1.40
2018-11-07T03:29:49.800Z,1.40
2018-11-07T03:32:18.155Z,1.60
2018-11-07T03:34:46.558Z,1.50
2018-11-07T03:37:14.870Z,1.50
2018-11-07T03:39:43.240Z,1.70
2018-11-07T03:42:11.475Z,1.50
2018-11-07T03:44:39.770Z,1.53
2018-11-07T03:47:08.079Z,1.60
2018-11-07T03:49:36.493Z,1.50
2018-11-07T03:52:04.805Z,1.50
2018-11-07T03:54:33.082Z,1.43
2018-11-07T03:57:01.411Z,1.60
2018-11-07T03:59:29.799Z,1.50
2018-11-07T04:01:58.097Z,1.50
2018-11-07T04:04:26.386Z,1.50
2018-11-07T04:06:54.680Z,1.40
2018-11-07T04:09:22.959Z,1.57
2018-11-07T04:11:51.281Z,1.50
2018-11-07T04:14:19.561Z,1.53
2018-11-07T04:16:47.864Z,1.50
2018-11-07T04:19:16.156Z,1.13
2018-11-07T04:21:44.534Z,1.37
2018-11-07T04:24:12.900Z,1.50
2018-11-07T04:26:41.213Z,1.37
2018-11-07T04:29:09.508Z,1.20
2018-11-07T04:31:37.802Z,1.63
2018-11-07T04:34:06.085Z,1.50
2018-11-07T04:36:34.369Z,1.30
2018-11-07T04:39:02.763Z,1.47
2018-11-07T04:41:31.016Z,1.53
2018-11-07T04:43:59.306Z,1.30
2018-11-07T04:46:27.605Z,1.10
2018-11-07T04:48:55.896Z,1.10
2018-11-07T04:51:24.189Z,1.20
2018-11-07T04:53:52.468Z,1.30
2018-11-07T04:56:20.781Z,1.30
2018-11-07T04:58:49.043Z,1.20
2018-11-07T05:01:17.331Z,1.40
2018-11-07T05:03:45.613Z,1.30
2018-11-07T05:06:13.893Z,1.20
2018-11-07T05:08:42.226Z,1.30
2018-11-07T05:11:10.503Z,1.30
2018-11-07T05:13:38.832Z,1.40
2018-11-07T05:16:07.126Z,1.60
2018-11-07T05:18:35.428Z,1.20
2018-11-07T05:21:03.725Z,1.20
2018-11-07T05:23:32.005Z,1.37
2018-11-07T05:26:00.611Z,1.40
2018-11-07T05:28:28.919Z,2.20
2018-11-07T05:30:57.254Z,2.47
2018-11-07T05:33:25.540Z,3.70
2018-11-07T05:35:53.835Z,2.50
2018-11-07T05:38:22.153Z,3.93
2018-11-07T05:40:50.452Z,2.57
2018-11-07T05:43:18.806Z,3.93
2018-11-07T05:45:47.138Z,5.30
2018-11-07T05:48:15.495Z,6.57
2018-11-07T05:50:43.811Z,8.87
2018-11-07T05:53:12.125Z,11.63
2018-11-07T05:55:40.409Z,11.47
2018-11-07T05:58:08.722Z,9.23
2018-11-07T06:00:37.065Z,12.37
2018-11-07T06:03:05.339Z,11.20
2018-11-07T06:05:33.621Z,15.83
2018-11-07T06:08:01.919Z,13.87
2018-11-07T06:10:30.233Z,15.57
2018-11-07T06:12:58.519Z,14.80
2018-11-07T06:15:26.809Z,10.73
2018-11-07T06:17:55.101Z,15.43
2018-11-07T06:20:23.400Z,13.30
2018-11-07T06:22:51.705Z,15.77
2018-11-07T06:25:20.017Z,16.13
2018-11-07T06:27:48.319Z,14.27
2018-11-07T06:30:16.605Z,15.53
2018-11-07T06:32:44.901Z,14.30
2018-11-07T06:35:13.211Z,18.67
2018-11-07T06:37:41.497Z,14.03
2018-11-07T06:40:10.984Z,17.57
2018-11-07T06:42:39.359Z,17.67
2018-11-07T06:45:08.231Z,14.47
2018-11-07T06:47:36.523Z,14.23
2018-11-07T06:50:06.796Z,14.53
2018-11-07T06:52:35.073Z,16.00
2018-11-07T06:55:03.416Z,13.33
2018-11-07T06:57:31.681Z,14.20
2018-11-07T06:59:59.988Z,13.87
2018-11-07T07:02:28.324Z,13.87
2018-11-07T07:04:56.612Z,15.83
2018-11-07T07:07:25.161Z,12.30
2018-11-07T07:09:53.463Z,10.80
2018-11-07T07:12:21.752Z,10.33
2018-11-07T07:14:50.051Z,12.80
2018-11-07T07:17:18.391Z,11.17
2018-11-07T07:19:46.667Z,11.47
2018-11-07T07:22:14.973Z,11.10
2018-11-07T07:24:43.279Z,11.37
2018-11-07T07:27:12.057Z,11.57
2018-11-07T07:29:40.364Z,9.03
2018-11-07T07:32:08.653Z,11.60
2018-11-07T07:34:36.940Z,9.57
2018-11-07T07:37:05.253Z,11.80
2018-11-07T07:39:33.561Z,8.23
2018-11-07T07:42:01.850Z,8.43
2018-11-07T07:44:30.166Z,10.27
2018-11-07T07:46:58.459Z,10.07
2018-11-07T07:49:26.973Z,8.37
2018-11-07T07:51:55.177Z,8.13
2018-11-07T07:54:23.486Z,10.07
2018-11-07T07:56:51.816Z,7.43
2018-11-07T07:59:20.114Z,10.97
2018-11-07T08:01:48.437Z,6.63
2018-11-07T08:04:16.721Z,8.20
2018-11-07T08:06:45.081Z,8.73
2018-11-07T08:09:14.090Z,8.20
2018-11-07T08:11:42.389Z,8.77
2018-11-07T08:14:11.050Z,6.87
2018-11-07T08:16:39.394Z,9.23
2018-11-07T08:19:08.649Z,7.37
2018-11-07T08:21:36.952Z,7.13
2018-11-07T08:24:05.289Z,7.00
2018-11-07T08:26:33.902Z,7.50
2018-11-07T08:29:02.233Z,7.43
2018-11-07T08:31:30.967Z,7.60
2018-11-07T08:33:59.372Z,8.00
2018-11-07T08:36:28.895Z,7.73
2018-11-07T08:38:57.178Z,6.83
2018-11-07T08:41:25.472Z,6.77
2018-11-07T08:43:53.786Z,9.13
2018-11-07T08:46:22.075Z,5.80
2018-11-07T08:48:50.377Z,5.83
2018-11-07T08:51:18.674Z,5.73
2018-11-07T08:53:47.008Z,7.63
2018-11-07T08:56:15.282Z,5.67
2018-11-07T08:58:43.588Z,5.77
2018-11-07T09:01:11.981Z,6.83
2018-11-07T09:03:40.358Z,5.50
2018-11-07T09:06:08.665Z,5.70
2018-11-07T09:08:36.942Z,6.27
2018-11-07T09:11:05.256Z,5.43
2018-11-07T09:13:33.560Z,5.03
2018-11-07T09:16:01.855Z,4.47
2018-11-07T09:18:30.149Z,5.50
2018-11-07T09:20:58.446Z,5.67
2018-11-07T09:23:26.748Z,7.40
2018-11-07T09:25:55.076Z,5.17
2018-11-07T09:28:23.388Z,4.80
2018-11-07T09:30:51.727Z,5.80
2018-11-07T09:33:20.006Z,4.43
2018-11-07T09:35:48.300Z,3.90
2018-11-07T09:38:16.614Z,4.80
2018-11-07T09:40:44.902Z,5.20
2018-11-07T09:43:13.199Z,4.27
2018-11-07T09:45:41.518Z,4.30
2018-11-07T09:48:09.882Z,4.67
2018-11-07T09:50:38.133Z,5.10
2018-11-07T09:53:06.426Z,4.10
2018-11-07T09:55:34.724Z,4.47
2018-11-07T09:58:03.038Z,3.70
2018-11-07T10:00:31.360Z,4.27
2018-11-07T10:02:59.670Z,3.80
2018-11-07T10:05:28.696Z,4.00
2018-11-07T10:07:56.956Z,4.03
2018-11-07T10:10:25.223Z,4.40
2018-11-07T10:12:53.515Z,4.17
2018-11-07T10:15:22.032Z,3.57
2018-11-07T10:17:50.338Z,4.23
2018-11-07T10:20:19.929Z,4.03
2018-11-07T10:22:48.700Z,4.50
2018-11-07T10:25:17.182Z,3.23
2018-11-07T10:27:45.869Z,4.23
2018-11-07T10:30:17.300Z,3.70
2018-11-07T10:32:46.488Z,3.60
2018-11-07T10:35:14.826Z,3.63
2018-11-07T10:37:43.201Z,4.10
2018-11-07T10:40:15.560Z,4.00
2018-11-07T10:42:44.212Z,3.70
2018-11-07T10:45:12.770Z,3.40
2018-11-07T10:47:42.268Z,3.67
2018-11-07T10:50:11.818Z,3.50
2018-11-07T10:52:41.086Z,3.87
2018-11-07T10:55:10.085Z,4.20
2018-11-07T10:57:38.572Z,3.27
2018-11-07T11:00:13.234Z,3.43
2018-11-07T11:02:45.628Z,4.00
2018-11-07T11:05:14.593Z,3.40
2018-11-07T11:07:43.196Z,3.40
2018-11-07T11:10:12.456Z,3.17
2018-11-07T11:12:41.172Z,3.57
2018-11-07T11:15:09.470Z,3.73
2018-11-07T11:17:37.802Z,3.33
2018-11-07T11:20:08.473Z,3.07
2018-11-07T11:22:36.765Z,3.63
2018-11-07T11:25:05.094Z,3.47
2018-11-07T11:27:33.516Z,3.37
2018-11-07T11:30:01.730Z,3.70
2018-11-07T11:32:30.072Z,2.70
2018-11-07T11:34:58.478Z,3.30
2018-11-07T11:37:26.692Z,3.30
2018-11-07T11:39:55.005Z,3.40
2018-11-07T11:42:23.294Z,2.77
2018-11-07T11:44:51.622Z,3.20
2018-11-07T11:47:19.927Z,3.47
2018-11-07T11:49:48.387Z,3.20
2018-11-07T11:52:16.683Z,3.43
2018-11-07T11:54:44.986Z,2.90
2018-11-07T11:57:13.354Z,3.13
2018-11-07T11:59:41.898Z,3.40
2018-11-07T12:02:09.978Z,3.43
2018-11-07T12:04:38.273Z,2.93
2018-11-07T12:07:06.613Z,2.93
2018-11-07T12:09:34.910Z,3.30
2018-11-07T12:12:03.231Z,2.90
2018-11-07T12:14:31.514Z,3.57
2018-11-07T12:16:59.822Z,2.93
2018-11-07T12:19:28.115Z,2.73
2018-11-07T12:21:56.429Z,2.77
2018-11-07T12:24:24.754Z,2.87
2018-11-07T12:26:53.129Z,3.20
2018-11-07T12:29:21.354Z,2.77
2018-11-07T12:31:49.660Z,3.10
2018-11-07T12:34:18.024Z,2.87
2018-11-07T12:36:47.075Z,2.50
2018-11-07T12:39:15.387Z,2.60
2018-11-07T12:41:43.682Z,3.20
2018-11-07T12:44:11.991Z,4.73
2018-11-07T12:46:40.301Z,2.90
2018-11-07T12:49:08.580Z,2.67
2018-11-07T12:51:36.898Z,2.73
2018-11-07T12:54:05.203Z,2.60
2018-11-07T12:56:33.536Z,2.70
2018-11-07T12:59:01.825Z,2.60
2018-11-07T13:01:30.132Z,2.73
2018-11-07T13:03:58.437Z,2.23
2018-11-07T13:06:26.760Z,2.77
2018-11-07T13:08:55.648Z,2.93
2018-11-07T13:11:23.979Z,3.07
2018-11-07T13:13:52.241Z,2.67
2018-11-07T13:16:20.534Z,2.27
2018-11-07T13:18:48.848Z,2.50
2018-11-07T13:21:17.144Z,2.37
2018-11-07T13:23:45.496Z,2.30
2018-11-07T13:26:13.789Z,2.87
2018-11-07T13:28:42.142Z,2.80
2018-11-07T13:31:10.407Z,2.53
2018-11-07T13:33:38.698Z,2.20
2018-11-07T13:36:07.045Z,2.27
2018-11-07T13:38:35.681Z,2.17
2018-11-07T13:41:03.728Z,2.27
2018-11-07T13:43:31.991Z,2.90
2018-11-07T13:46:00.353Z,2.90
2018-11-07T13:48:28.597Z,2.00
2018-11-07T13:50:56.923Z,2.10
2018-11-07T13:53:25.213Z,2.77
2018-11-07T13:55:53.517Z,2.60
2018-11-07T13:58:21.961Z,1.93
2018-11-07T14:00:50.283Z,2.20
2018-11-07T14:03:18.610Z,2.10
2018-11-07T14:05:47.093Z,2.30
2018-11-07T14:08:15.292Z,2.60
2018-11-07T14:10:43.568Z,1.83
2018-11-07T14:13:11.879Z,2.33
2018-11-07T14:15:40.174Z,2.07
2018-11-07T14:18:08.463Z,2.10
2018-11-07T14:20:36.823Z,2.30
2018-11-07T14:23:05.127Z,2.20
2018-11-07T14:25:34.329Z,2.40
2018-11-07T14:28:02.803Z,2.20
2018-11-07T14:30:30.945Z,2.27
2018-11-07T14:33:01.750Z,2.00
2018-11-07T14:35:30.074Z,2.10
2018-11-07T14:37:58.841Z,1.93
2018-11-07T14:40:27.240Z,2.20
2018-11-07T14:42:55.553Z,1.80
2018-11-07T14:45:23.868Z,2.37
2018-11-07T14:47:52.361Z,2.10
2018-11-07T14:50:20.715Z,2.30
2018-11-07T14:52:50.071Z,1.97
2018-11-07T14:55:18.377Z,2.20
2018-11-07T14:57:46.725Z,2.07
2018-11-07T15:00:16.127Z,2.00
2018-11-07T15:02:44.978Z,2.60
2018-11-07T15:05:14.226Z,1.97
2018-11-07T15:07:44.446Z,2.03
2018-11-07T15:10:13.654Z,2.20
2018-11-07T15:12:41.959Z,1.93
2018-11-07T15:15:14.847Z,2.10
2018-11-07T15:17:43.476Z,2.03
2018-11-07T15:20:13.067Z,1.90
2018-11-07T15:22:41.388Z,1.80
2018-11-07T15:25:10.896Z,2.10
2018-11-07T15:27:39.291Z,1.90
2018-11-07T15:30:09.953Z,2.10
2018-11-07T15:32:38.435Z,1.83
2018-11-07T15:35:07.711Z,2.07
2018-11-07T15:37:36.241Z,1.90
2018-11-07T15:40:06.049Z,1.70
2018-11-07T15:42:34.392Z,1.67
2018-11-07T15:45:02.914Z,1.67
2018-11-07T15:47:31.341Z,1.80
2018-11-07T15:50:05.143Z,1.80
2018-11-07T15:52:33.456Z,1.83
2018-11-07T15:55:01.800Z,1.90
2018-11-07T15:57:30.114Z,2.10
2018-11-07T15:59:58.529Z,1.70
2018-11-07T16:02:26.738Z,2.07
2018-11-07T16:04:55.073Z,1.93
2018-11-07T16:07:23.428Z,2.13
2018-11-07T16:09:51.733Z,1.87
2018-11-07T16:12:20.112Z,1.50
2018-11-07T16:14:48.404Z,1.53
2018-11-07T16:17:16.707Z,1.40
2018-11-07T16:19:45.285Z,1.70
2018-11-07T16:22:13.679Z,2.60
2018-11-07T16:24:42.005Z,1.70
2018-11-07T16:27:10.306Z,1.70
2018-11-07T16:29:38.657Z,1.90
2018-11-07T16:32:06.982Z,1.60
2018-11-07T16:34:36.177Z,1.67
2018-11-07T16:37:04.500Z,1.70
2018-11-07T16:39:32.857Z,1.50
2018-11-07T16:42:01.152Z,1.43
2018-11-07T16:44:29.593Z,1.47
2018-11-07T16:46:57.971Z,1.73
2018-11-07T16:49:26.291Z,1.63
2018-11-07T16:51:54.620Z,1.70
2018-11-07T16:54:22.967Z,1.60
2018-11-07T16:56:51.315Z,1.63
2018-11-07T16:59:20.011Z,1.63
2018-11-07T17:01:48.337Z,1.57
2018-11-07T17:04:16.689Z,1.70
2018-11-07T17:06:45.049Z,1.60
2018-11-07T17:09:13.392Z,1.60
2018-11-07T17:11:42.248Z,1.50
2018-11-07T17:14:10.624Z,1.73
2018-11-07T17:16:39.002Z,1.80
2018-11-07T17:19:07.342Z,4.00
2018-11-07T17:21:35.677Z,1.87
2018-11-07T17:24:04.339Z,1.70
2018-11-07T17:26:32.727Z,1.50
2018-11-07T17:29:01.018Z,1.63
2018-11-07T17:31:29.410Z,1.50
2018-11-07T17:33:58.962Z,1.53
2018-11-07T17:36:27.357Z,3.20
2018-11-07T17:38:56.713Z,2.03
2018-11-07T17:41:25.132Z,2.87
2018-11-07T17:43:53.474Z,2.33
2018-11-07T17:46:21.825Z,1.90
2018-11-07T17:48:50.161Z,3.03
2018-11-07T17:51:18.539Z,2.20
2018-11-07T17:53:46.897Z,1.80
2018-11-07T17:56:15.292Z,1.70
2018-11-07T17:58:43.863Z,1.90
2018-11-07T18:01:12.321Z,2.03
2018-11-07T18:03:40.732Z,2.53
2018-11-07T18:06:09.058Z,1.80
2018-11-07T18:08:37.755Z,2.00
2018-11-07T18:11:06.154Z,1.60
2018-11-07T18:13:34.557Z,1.67
2018-11-07T18:16:02.849Z,2.13
2018-11-07T18:18:31.254Z,2.27
2018-11-07T18:20:59.748Z,1.90
2018-11-07T18:23:28.143Z,1.70
2018-11-07T18:25:56.533Z,1.63
2018-11-07T18:28:25.019Z,4.03
2018-11-07T18:30:53.687Z,2.23
2018-11-07T18:33:22.040Z,1.90
2018-11-07T18:35:51.320Z,2.20
2018-11-07T18:38:19.783Z,1.97
2018-11-07T18:40:48.193Z,3.07
2018-11-07T18:43:18.074Z,2.30
2018-11-07T18:45:46.399Z,2.37
2018-11-07T18:48:14.864Z,1.53
2018-11-07T18:50:43.391Z,1.97
2018-11-07T18:53:11.745Z,2.30
2018-11-07T18:55:40.130Z,1.80
2018-11-07T18:58:08.595Z,2.00
2018-11-07T19:00:37.026Z,2.10
2018-11-07T19:03:05.983Z,2.00
2018-11-07T19:05:34.377Z,1.77
2018-11-07T19:08:02.856Z,2.30
2018-11-07T19:10:31.249Z,1.93
2018-11-07T19:12:59.678Z,2.43
2018-11-07T19:15:28.170Z,1.80
2018-11-07T19:17:56.691Z,1.97
2018-11-07T19:20:25.332Z,2.00
2018-11-07T19:22:54.715Z,2.00
2018-11-07T19:25:23.115Z,1.80
2018-11-07T19:27:51.879Z,1.73
2018-11-07T19:30:21.639Z,1.50
2018-11-07T19:32:51.533Z,1.90
2018-11-07T19:35:20.852Z,1.80
2018-11-07T19:37:49.983Z,1.70
2018-11-07T19:40:21.372Z,1.80
2018-11-07T19:42:49.843Z,1.70
2018-11-07T19:45:19.201Z,1.83
2018-11-07T19:47:48.018Z,2.00
2018-11-07T19:50:17.659Z,1.50
2018-11-07T19:52:47.242Z,1.80
2018-11-07T19:55:17.763Z,3.03
2018-11-07T19:57:51.861Z,1.77
2018-11-07T20:00:20.354Z,2.07
2018-11-07T20:02:48.753Z,1.70
2018-11-07T20:05:17.201Z,1.90
2018-11-07T20:07:45.642Z,1.73
2018-11-07T20:10:18.360Z,1.53
2018-11-07T20:12:46.927Z,1.60
2018-11-07T20:15:16.544Z,1.60
2018-11-07T20:17:46.082Z,3.00
2018-11-07T20:20:15.765Z,2.07
2018-11-07T20:22:45.035Z,1.90
2018-11-07T20:25:14.349Z,1.90
2018-11-07T20:27:43.341Z,1.50
2018-11-07T20:30:15.360Z,1.53
2018-11-07T20:32:44.364Z,1.53
2018-11-07T20:35:15.283Z,1.47
2018-11-07T20:37:43.910Z,1.80
2018-11-07T20:40:14.081Z,1.80
2018-11-07T20:42:42.844Z,1.80
2018-11-07T20:45:12.295Z,1.60
2018-11-07T20:47:41.495Z,1.50
2018-11-07T20:50:12.529Z,1.33
2018-11-07T20:52:42.186Z,1.50
2018-11-07T20:55:11.564Z,1.53
2018-11-07T20:57:40.556Z,1.27
2018-11-07T21:00:11.567Z,1.60
2018-11-07T21:02:41.001Z,1.40
2018-11-07T21:05:09.665Z,1.57
2018-11-07T21:07:38.366Z,1.47
2018-11-07T21:10:09.634Z,1.53
2018-11-07T21:12:38.098Z,1.40
2018-11-07T21:15:07.412Z,1.47
2018-11-07T21:17:36.831Z,1.50
2018-11-07T21:20:05.724Z,1.60
2018-11-07T21:22:34.160Z,1.20
2018-11-07T21:25:02.589Z,2.73
2018-11-07T21:27:31.156Z,1.60
2018-11-07T21:29:59.614Z,1.60
2018-11-07T21:32:28.087Z,1.40
2018-11-07T21:34:57.247Z,1.47
2018-11-07T21:37:25.689Z,1.90
2018-11-07T21:39:54.120Z,1.40
2018-11-07T21:42:22.551Z,1.60
2018-11-07T21:44:51.015Z,1.37
2018-11-07T21:47:19.782Z,1.40
2018-11-07T21:49:48.482Z,1.47
2018-11-07T21:52:16.838Z,1.20
2018-11-07T21:54:45.283Z,2.10
2018-11-07T21:57:13.580Z,1.37
2018-11-07T21:59:41.901Z,1.40
2018-11-07T22:02:10.223Z,1.40
2018-11-07T22:04:38.555Z,1.33
2018-11-07T22:07:06.925Z,1.13
2018-11-07T22:09:35.237Z,1.40
2018-11-07T22:12:03.579Z,1.40
2018-11-07T22:14:33.436Z,1.37
2018-11-07T22:17:01.771Z,1.50
2018-11-07T22:19:30.091Z,1.30
2018-11-07T22:21:58.409Z,1.23
2018-11-07T22:24:26.770Z,1.30
2018-11-07T22:26:55.032Z,1.20
2018-11-07T22:29:23.333Z,1.40
2018-11-07T22:31:51.650Z,1.30
2018-11-07T22:34:19.979Z,1.37
2018-11-07T22:36:48.282Z,1.10
2018-11-07T22:39:17.176Z,1.27
2018-11-07T22:41:45.723Z,1.40
2018-11-07T22:44:14.036Z,1.30
2018-11-07T22:46:42.337Z,1.30
2018-11-07T22:49:10.677Z,1.30
2018-11-07T22:51:39.000Z,1.30
2018-11-07T22:54:07.276Z,1.33
2018-11-07T22:56:35.581Z,0.97
2018-11-07T22:59:03.902Z,1.33
2018-11-07T23:01:38.403Z,1.20
2018-11-07T23:04:06.745Z,1.10
2018-11-07T23:06:35.325Z,1.00
2018-11-07T23:09:04.718Z,1.20
2018-11-07T23:11:37.356Z,1.20
2018-11-07T23:14:05.980Z,1.10
2018-11-07T23:16:34.304Z,1.20
2018-11-07T23:19:02.622Z,1.10
2018-11-07T23:21:30.956Z,1.20
2018-11-07T23:23:59.243Z,1.40
2018-11-07T23:26:27.595Z,1.30
2018-11-07T23:28:55.900Z,1.10
2018-11-07T23:31:24.210Z,1.17
2018-11-07T23:33:52.514Z,1.70
2018-11-07T23:36:21.500Z,1.17
2018-11-07T23:38:49.782Z,1.60
2018-11-07T23:41:18.078Z,1.10
2018-11-07T23:43:46.418Z,1.13
2018-11-07T23:46:14.752Z,1.00
2018-11-07T23:48:43.064Z,2.60
2018-11-07T23:51:11.414Z,1.10
2018-11-07T23:53:39.700Z,1.10
2018-11-07T23:56:08.018Z,1.20
2018-11-07T23:58:36.314Z,1.03
